Time;durP1;ratioP1;P1;durP2;ratioP2;P2;SDS_P1;SDS_P2;PMS_P1;PMS_P2;Temp;Humidity;BMP_temperature;BMP_pressure;BME280_temperature;BME280_humidity;BME280_pressure;Samples;Min_cycle;Max_cycle;Signal;HPM_P1;HPM_P2
2022/06/06 00:03:23;;;;;;;5.72;2.90;;;;;;;16.68;64.03;99776.81;10422089;28;20095;-79
2022/06/06 00:08:25;;;;;;;5.38;3.10;;;;;;;16.50;64.62;99773.16;10429816;28;20359;-79
2022/06/06 00:13:27;;;;;;;5.70;3.08;;;;;;;16.44;65.01;99763.13;10429548;28;20499;-80
2022/06/06 00:18:29;;;;;;;7.63;3.50;;;;;;;16.52;64.52;99747.44;10427383;28;20522;-80
2022/06/06 00:23:31;;;;;;;7.55;3.53;;;;;;;16.49;64.67;99751.19;10425866;28;20147;-79
2022/06/06 00:28:33;;;;;;;5.38;3.33;;;;;;;16.52;64.38;99750.94;10424504;28;20430;-79
2022/06/06 00:38:55;;;;;;;7.40;3.55;;;;;;;16.49;64.20;99753.81;10430523;28;20282;-79
2022/06/06 00:44:20;;;;;;;7.95;3.65;;;;;;;16.49;64.37;99745.09;10431835;28;20084;-79
2022/06/06 00:49:30;;;;;;;6.75;4.00;;;;;;;16.51;64.18;99754.53;10428025;28;20222;-79
2022/06/06 00:54:38;;;;;;;8.05;4.05;;;;;;;16.56;63.73;99764.69;10428151;28;20052;-79
2022/06/06 00:59:42;;;;;;;6.05;3.90;;;;;;;16.58;63.55;99773.31;10425064;28;20095;-79
2022/06/06 01:04:45;;;;;;;6.40;3.88;;;;;;;16.53;63.29;99765.78;10425722;28;20136;-79
2022/06/06 01:09:47;;;;;;;7.60;4.07;;;;;;;16.50;63.52;99770.50;10424875;28;20095;-79
2022/06/06 01:15:00;;;;;;;8.57;4.28;;;;;;;16.41;63.74;99779.16;10424109;28;20088;-80
2022/06/06 01:20:14;;;;;;;10.75;4.50;;;;;;;16.27;63.60;99764.53;10423669;28;20080;-79
2022/06/06 01:25:52;;;;;;;9.23;4.80;;;;;;;16.19;63.79;99769.63;10426410;28;20887;-79
2022/06/06 01:30:58;;;;;;;8.70;4.93;;;;;;;16.23;63.47;99771.88;10433820;28;20908;-80
2022/06/06 01:36:01;;;;;;;7.38;4.72;;;;;;;16.15;64.07;99774.34;10433996;28;20102;-79
2022/06/06 01:41:08;;;;;;;11.43;5.10;;;;;;;16.11;64.03;99785.28;10427692;28;20107;-79
2022/06/06 01:46:15;;;;;;;8.18;5.55;;;;;;;16.08;64.15;99789.00;10425881;28;20060;-79
2022/06/06 01:51:27;;;;;;;6.53;4.90;;;;;;;16.04;64.53;99792.88;10428644;28;20053;-79
2022/06/06 01:56:32;;;;;;;10.73;4.82;;;;;;;16.02;64.51;99778.97;10426554;28;20132;-79
2022/06/06 02:01:33;;;;;;;8.05;5.28;;;;;;;15.97;64.70;99791.72;10426743;28;20521;-79
2022/06/06 02:06:38;;;;;;;10.63;5.57;;;;;;;15.90;64.91;99779.16;10432278;28;20059;-79
2022/06/06 02:11:40;;;;;;;9.55;5.18;;;;;;;15.84;64.82;99779.69;10432465;28;20048;-78
2022/06/06 02:16:42;;;;;;;8.40;5.47;;;;;;;15.85;64.80;99768.19;10432626;28;20053;-78
2022/06/06 02:21:44;;;;;;;9.40;5.47;;;;;;;15.76;64.63;99763.66;10430631;28;20049;-79
2022/06/06 02:26:46;;;;;;;8.75;5.78;;;;;;;15.63;64.98;99766.50;10432482;28;20535;-79
2022/06/06 02:31:48;;;;;;;9.75;5.30;;;;;;;15.67;64.86;99757.38;10431840;28;20399;-79
2022/06/06 02:36:50;;;;;;;8.95;5.80;;;;;;;15.67;64.76;99759.19;10432412;28;20110;-79
2022/06/06 02:41:53;;;;;;;10.20;5.88;;;;;;;15.67;64.72;99764.44;10432055;28;20045;-79
2022/06/06 02:46:54;;;;;;;11.05;5.85;;;;;;;15.55;64.73;99761.00;10427002;28;20128;-79
2022/06/06 02:51:56;;;;;;;10.88;6.13;;;;;;;15.52;65.21;99757.81;10435715;28;20099;-78
2022/06/06 02:56:59;;;;;;;8.90;5.65;;;;;;;15.50;64.96;99757.09;10435863;28;20115;-78
2022/06/06 03:02:02;;;;;;;10.57;6.15;;;;;;;15.51;64.74;99762.22;10439105;28;20797;-78
2022/06/06 03:07:28;;;;;;;9.20;6.05;;;;;;;15.40;65.32;99749.94;10436561;28;20048;-78
2022/06/06 03:13:07;;;;;;;9.77;6.03;;;;;;;15.37;65.32;99758.06;10434918;28;20076;-78
2022/06/06 03:24:41;;;;;;;9.93;6.35;;;;;;;15.30;65.53;99766.63;10435536;28;20052;-78
2022/06/06 03:30:05;;;;;;;12.43;6.47;;;;;;;15.37;65.43;99771.25;10413737;28;20098;-78
2022/06/06 03:35:19;;;;;;;11.05;6.57;;;;;;;15.32;65.33;99773.44;10433061;28;20536;-79
2022/06/06 03:40:46;;;;;;;9.70;7.10;;;;;;;15.31;65.17;99786.72;10432911;28;20580;-78
2022/06/06 03:46:05;;;;;;;13.60;7.20;;;;;;;15.43;65.15;99796.25;10435781;28;20048;-79
2022/06/06 03:51:19;;;;;;;8.13;6.33;;;;;;;15.47;65.27;99797.69;10433798;28;20107;-78
2022/06/06 03:56:43;;;;;;;9.73;5.93;;;;;;;15.81;64.38;99793.13;10432391;28;20142;-79
2022/06/06 04:01:46;;;;;;;12.70;6.53;;;;;;;16.05;63.55;99785.81;10432681;28;20045;-79
2022/06/06 04:06:51;;;;;;;8.45;5.68;;;;;;;16.20;63.06;99789.78;10432841;28;20164;-79
2022/06/06 04:12:11;;;;;;;10.18;6.35;;;;;;;16.23;62.75;99800.06;10433878;28;20103;-78
2022/06/06 04:17:13;;;;;;;10.87;5.87;;;;;;;17.04;61.04;99802.66;10432236;28;20131;-79
2022/06/06 04:22:50;;;;;;;10.55;6.03;;;;;;;16.61;60.87;99792.34;10432101;28;20076;-78
2022/06/06 04:28:28;;;;;;;9.80;6.13;;;;;;;16.50;61.60;99805.66;10333598;28;20052;-78
2022/06/06 04:33:42;;;;;;;8.93;6.00;;;;;;;16.58;61.46;99815.56;10409053;28;20509;-78
2022/06/06 04:38:56;;;;;;;9.02;6.10;;;;;;;16.53;61.30;99815.13;10432911;28;20057;-78
2022/06/06 04:44:09;;;;;;;11.15;6.25;;;;;;;16.66;61.15;99823.66;10432497;28;20060;-79
2022/06/06 04:49:11;;;;;;;10.23;5.68;;;;;;;16.80;60.84;99828.56;10431331;28;20142;-78
2022/06/06 04:54:16;;;;;;;12.57;5.80;;;;;;;16.94;60.61;99820.28;10428792;28;20059;-79
2022/06/06 04:59:26;;;;;;;8.30;5.97;;;;;;;17.10;60.26;99817.94;10427013;28;20056;-79
2022/06/06 05:04:29;;;;;;;10.07;5.95;;;;;;;17.10;60.14;99827.72;10426964;28;20133;-78
2022/06/06 05:09:40;;;;;;;7.43;5.45;;;;;;;17.18;59.34;99838.44;10428602;28;20441;-79
2022/06/06 05:15:09;;;;;;;8.57;5.95;;;;;;;17.70;58.43;99838.13;10442185;28;20126;-78
2022/06/06 05:20:33;;;;;;;7.88;5.55;;;;;;;17.54;58.39;99837.84;10429352;28;20622;-79
2022/06/06 05:25:41;;;;;;;7.90;5.57;;;;;;;17.49;58.75;99843.53;10425246;28;20126;-78
2022/06/06 05:31:02;;;;;;;8.70;5.63;;;;;;;17.78;58.05;99846.19;10427585;28;20449;-78
2022/06/06 05:36:10;;;;;;;10.65;5.72;;;;;;;18.03;58.16;99860.66;10426305;28;20189;-79
2022/06/06 05:41:35;;;;;;;10.63;5.65;;;;;;;18.33;56.85;99860.50;10429486;28;20106;-79
2022/06/06 05:52:29;;;;;;;7.80;5.60;;;;;;;18.18;56.70;99861.91;10537683;27;20653;-70
2022/06/06 05:57:36;;;;;;;9.95;5.45;;;;;;;18.25;57.18;99853.28;10542068;28;20460;-71
2022/06/06 06:02:50;;;;;;;8.25;5.20;;;;;;;18.36;56.52;99861.06;10542992;28;20124;-71
2022/06/06 06:08:10;;;;;;;10.23;5.15;;;;;;;18.34;56.25;99862.19;10541209;28;20052;-69
2022/06/06 06:13:17;;;;;;;;;;;;;;;18.06;57.27;99857.72;10542284;28;20456;-69
2022/06/06 06:18:54;;;;;;;8.85;5.13;;;;;;;18.54;55.83;99859.34;10542718;28;19963;-70
2022/06/06 06:24:01;;;;;;;12.55;4.82;;;;;;;19.28;54.48;99859.31;10539729;28;20052;-70
2022/06/06 06:29:05;;;;;;;7.43;4.70;;;;;;;19.52;53.49;99864.91;10542877;28;20051;-70
2022/06/06 06:34:44;;;;;;;7.50;4.95;;;;;;;19.73;52.70;99870.75;10541489;28;20451;-69
2022/06/06 06:39:59;;;;;;;8.60;4.97;;;;;;;19.97;52.45;99884.28;10532465;28;20991;-69
2022/06/06 06:45:15;;;;;;;9.23;5.32;;;;;;;20.33;50.69;99884.25;10541662;28;20135;-71
2022/06/06 06:50:19;;;;;;;7.55;4.78;;;;;;;21.15;49.76;99888.06;10538575;28;20205;-71
2022/06/06 06:55:51;;;;;;;8.30;4.95;;;;;;;22.10;47.49;99883.22;10540648;28;20142;-71
2022/06/06 07:01:01;;;;;;;6.47;4.40;;;;;;;22.39;46.64;99882.69;10525379;28;20060;-71
2022/06/06 07:11:46;;;;;;;6.88;4.20;;;;;;;22.32;46.73;99884.34;10509207;28;20126;-71
2022/06/06 07:16:55;;;;;;;6.38;3.80;;;;;;;22.58;45.20;99887.66;10511944;28;20138;-71
2022/06/06 07:22:00;;;;;;;5.75;3.33;;;;;;;22.28;44.78;99888.34;10508508;28;20051;-71
2022/06/06 07:27:04;;;;;;;5.22;3.38;;;;;;;22.04;44.93;99885.69;10508089;28;20113;-71
2022/06/06 07:32:37;;;;;;;5.65;3.53;;;;;;;21.47;45.06;99882.06;10510830;28;20127;-71
2022/06/06 07:38:17;;;;;;;5.22;3.53;;;;;;;21.02;46.17;99885.88;10509150;28;20048;-71
2022/06/06 07:43:34;;;;;;;6.53;3.50;;;;;;;20.77;47.09;99889.38;10421366;28;20080;-71
2022/06/06 07:48:48;;;;;;;6.28;3.70;;;;;;;20.56;47.68;99891.53;10486620;28;20170;-71
2022/06/06 07:54:05;;;;;;;5.95;3.70;;;;;;;20.36;48.43;99890.06;10509191;28;20055;-71
2022/06/06 07:59:19;;;;;;;7.55;4.03;;;;;;;20.23;49.21;99887.81;10510578;28;20048;-71
2022/06/06 08:04:24;;;;;;;6.60;3.95;;;;;;;20.38;48.84;99884.63;10508922;28;20089;-71
2022/06/06 08:10:01;;;;;;;8.35;3.30;;;;;;;20.54;48.88;99896.19;10507058;28;20063;-71
2022/06/06 08:15:22;;;;;;;5.07;3.22;;;;;;;20.94;47.49;99891.16;10490623;28;20608;-71
2022/06/06 08:20:50;;;;;;;4.78;3.30;;;;;;;21.32;46.36;99883.69;10509547;28;20050;-70
2022/06/06 08:25:54;;;;;;;5.03;2.92;;;;;;;21.92;45.40;99874.50;10487053;28;20054;-70
2022/06/06 08:30:56;;;;;;;4.05;2.60;;;;;;;23.22;42.82;99866.16;10509206;28;20480;-71
2022/06/06 08:36:22;;;;;;;4.47;2.35;;;;;;;24.11;39.16;99855.78;10499393;28;20063;-71
2022/06/06 08:41:45;;;;;;;3.65;2.00;;;;;;;23.95;37.95;99857.72;10500421;28;20106;-71
2022/06/06 08:47:04;;;;;;;3.78;2.15;;;;;;;24.70;38.64;99856.69;10508542;28;20071;-70
2022/06/06 08:52:06;;;;;;;3.70;1.90;;;;;;;25.90;35.35;99846.25;10493611;28;20492;-70
2022/06/06 08:57:33;;;;;;;3.15;1.90;;;;;;;26.28;33.81;99838.78;10507711;28;20040;-71
2022/06/06 09:03:04;;;;;;;4.03;2.00;;;;;;;26.20;33.41;99832.75;10503867;28;20083;-70
2022/06/06 09:08:37;;;;;;;3.90;1.85;;;;;;;25.54;34.19;99840.13;10498922;28;20052;-71
2022/06/06 09:14:23;;;;;;;4.68;1.70;;;;;;;24.57;35.05;99839.66;10506867;28;20139;-70
2022/06/06 09:19:30;;;;;;;4.60;1.98;;;;;;;23.79;36.53;99839.97;10417738;28;20048;-71
2022/06/06 09:24:50;;;;;;;3.88;1.70;;;;;;;23.04;37.74;99843.41;10486348;28;20058;-71
2022/06/06 09:30:15;;;;;;;4.45;1.98;;;;;;;22.80;39.28;99838.16;10504532;28;20146;-69
2022/06/06 09:35:39;;;;;;;3.88;2.00;;;;;;;23.31;38.51;99832.22;10491284;28;20127;-70
2022/06/06 09:41:07;;;;;;;3.85;2.00;;;;;;;23.70;35.84;99827.69;10485736;28;20051;-71
2022/06/06 09:46:47;;;;;;;2.80;1.80;;;;;;;24.06;34.82;99819.91;10484829;28;20040;-71
2022/06/06 09:52:17;;;;;;;4.90;1.70;;;;;;;23.86;32.55;99827.56;10481345;28;20055;-71
2022/06/06 10:03:20;;;;;;;4.00;1.30;;;;;;;24.92;30.72;99812.16;10481513;28;20607;-71
2022/06/06 10:08:43;;;;;;;4.10;1.30;;;;;;;25.51;30.87;99802.19;10480472;28;20411;-71
2022/06/06 10:13:52;;;;;;;3.05;1.17;;;;;;;25.72;29.30;99788.78;10487909;28;20143;-71
2022/06/06 10:19:16;;;;;;;2.00;1.20;;;;;;;25.64;29.02;99795.13;10479469;28;20052;-71
2022/06/06 10:25:06;;;;;;;2.35;1.08;;;;;;;25.20;28.66;99793.59;10483006;28;20737;-71
2022/06/06 10:30:26;;;;;;;2.72;1.20;;;;;;;25.49;29.59;99797.00;10355481;28;20106;-71
2022/06/06 10:35:46;;;;;;;2.13;1.00;;;;;;;25.47;29.31;99790.19;10464701;28;20174;-71
2022/06/06 10:41:00;;;;;;;3.20;1.20;;;;;;;24.85;28.01;99812.09;10496289;28;20040;-71
2022/06/06 10:46:28;;;;;;;1.48;0.95;;;;;;;24.49;29.30;99805.78;10499292;28;20173;-71
2022/06/06 10:51:49;;;;;;;2.67;1.10;;;;;;;24.30;30.67;99806.34;10494088;28;20047;-71
2022/06/06 10:57:06;;;;;;;3.30;1.10;;;;;;;24.34;30.24;99796.94;10492398;28;20198;-71
2022/06/06 11:02:30;;;;;;;2.70;1.00;;;;;;;24.41;30.27;99792.50;10493083;28;20221;-71
2022/06/06 11:07:48;;;;;;;3.70;1.27;;;;;;;23.90;30.31;99804.00;10491641;28;20052;-72
2022/06/06 11:13:27;;;;;;;4.72;1.35;;;;;;;23.39;30.63;99809.00;10494185;28;20137;-71
2022/06/06 11:18:46;;;;;;;2.40;1.10;;;;;;;23.47;31.78;99806.31;10491886;28;20054;-71
2022/06/06 11:23:56;;;;;;;2.45;1.40;;;;;;;23.17;32.01;99795.63;10493976;28;20048;-71
2022/06/06 11:29:25;;;;;;;3.08;1.30;;;;;;;23.38;31.84;99790.50;10492169;28;20134;-71
2022/06/06 11:35:14;;;;;;;5.32;1.20;;;;;;;23.73;31.12;99797.13;10490883;28;20052;-71
2022/06/06 11:40:37;;;;;;;3.03;1.10;;;;;;;23.89;31.26;99792.50;10453868;28;20044;-70
2022/06/06 11:46:02;;;;;;;1.83;1.08;;;;;;;24.08;31.09;99780.50;10482843;28;20153;-71
2022/06/06 11:51:14;;;;;;;2.90;1.15;;;;;;;23.89;31.61;99781.81;10494615;28;20053;-71
2022/06/06 11:56:41;;;;;;;2.22;1.20;;;;;;;23.43;32.10;99775.66;10489146;28;20130;-71
2022/06/06 12:02:24;;;;;;;2.13;1.27;;;;;;;23.54;32.33;99777.06;10489816;28;20040;-71
2022/06/06 12:07:51;;;;;;;2.60;1.20;;;;;;;23.85;32.59;99775.16;10489287;28;20210;-71
2022/06/06 12:13:18;;;;;;;3.35;1.20;;;;;;;24.05;32.29;99770.13;10488775;28;20634;-71
2022/06/06 12:18:51;;;;;;;3.67;1.45;;;;;;;24.05;32.00;99762.94;10495277;28;20048;-71
2022/06/06 12:24:17;;;;;;;2.90;1.30;;;;;;;24.35;32.76;99771.03;10494011;28;20058;-71
2022/06/06 12:29:23;;;;;;;3.33;1.42;;;;;;;23.97;32.66;99780.91;10484865;28;20044;-71
2022/06/06 12:34:38;;;;;;;3.15;1.48;;;;;;;23.58;33.61;99783.72;10486906;28;20094;-71
2022/06/06 12:39:51;;;;;;;4.82;1.63;;;;;;;23.01;34.74;99795.72;10490010;28;20050;-71
2022/06/06 12:45:30;;;;;;;3.72;1.60;;;;;;;22.08;35.39;99813.28;10502942;28;20052;-71
2022/06/06 12:50:44;;;;;;;3.15;1.35;;;;;;;21.30;38.02;99825.28;10492110;28;20051;-71
2022/06/06 12:56:23;;;;;;;3.17;1.55;;;;;;;21.23;38.74;99818.13;10479481;28;20071;-70
2022/06/06 13:01:42;;;;;;;2.65;1.27;;;;;;;21.55;38.07;99810.25;10489708;28;20164;-71
2022/06/06 13:06:56;;;;;;;3.85;1.48;;;;;;;22.44;37.41;99805.72;10486296;28;20529;-71
2022/06/06 13:12:28;;;;;;;3.50;1.40;;;;;;;23.15;36.00;99797.63;10488646;28;20367;-71
2022/06/06 13:18:04;;;;;;;2.88;1.50;;;;;;;22.72;36.25;99806.16;10482099;28;20551;-71
2022/06/06 13:23:23;;;;;;;1.65;1.25;;;;;;;22.55;36.08;99808.88;10477896;28;20076;-71
2022/06/06 13:28:28;;;;;;;2.28;1.40;;;;;;;22.63;37.15;99802.69;10483232;28;20075;-71
2022/06/06 13:33:59;;;;;;;5.82;1.35;;;;;;;22.72;36.47;99793.63;10480429;28;20212;-71
2022/06/06 13:39:29;;;;;;;4.65;1.40;;;;;;;22.82;35.82;99786.28;10500466;28;20498;-71
2022/06/06 13:44:46;;;;;;;3.90;1.38;;;;;;;22.62;36.98;99788.50;10487158;28;20494;-70
2022/06/06 13:50:13;;;;;;;3.10;1.40;;;;;;;22.54;37.53;99793.88;10482430;28;20060;-71
2022/06/06 13:55:29;;;;;;;2.47;1.40;;;;;;;22.74;36.71;99782.84;10484870;28;20194;-71
2022/06/06 14:00:44;;;;;;;3.40;1.15;;;;;;;23.00;36.18;99773.56;10484221;28;20720;-71
2022/06/06 14:05:58;;;;;;;3.03;1.30;;;;;;;22.95;35.27;99778.56;10486196;28;20112;-70
2022/06/06 14:11:10;;;;;;;1.98;1.25;;;;;;;22.82;35.74;99774.81;10488050;28;20058;-70
2022/06/06 14:16:35;;;;;;;2.28;1.30;;;;;;;22.29;36.26;99764.81;10493880;28;20890;-71
2022/06/06 14:21:47;;;;;;;2.80;1.30;;;;;;;22.68;35.74;99763.00;10498146;28;20456;-70
2022/06/06 14:27:02;;;;;;;4.95;1.40;;;;;;;22.74;35.82;99766.84;10506380;28;20043;-71
2022/06/06 14:32:19;;;;;;;6.07;1.30;;;;;;;22.35;35.62;99756.94;10492619;28;20052;-71
2022/06/06 14:37:31;;;;;;;3.60;1.10;;;;;;;22.11;36.14;99751.69;10498205;28;20058;-71
2022/06/06 14:42:36;;;;;;;3.67;1.25;;;;;;;22.52;35.64;99752.41;10496807;28;20712;-71
2022/06/06 14:47:49;;;;;;;2.55;1.30;;;;;;;22.67;34.60;99722.19;10485429;28;20522;-69
2022/06/06 14:52:53;;;;;;;3.35;1.20;;;;;;;22.81;34.67;99706.47;10505044;28;20301;-71
2022/06/06 14:57:55;;;;;;;4.93;1.13;;;;;;;22.83;34.34;99715.13;10487465;28;20500;-70
2022/06/06 15:03:04;;;;;;;2.05;1.10;;;;;;;23.01;33.72;99726.38;10488176;28;20135;-70
2022/06/06 15:08:29;;;;;;;2.92;1.20;;;;;;;22.95;34.01;99724.41;10489505;28;20048;-71
2022/06/06 15:13:31;;;;;;;4.32;1.30;;;;;;;23.05;34.36;99725.00;10492732;28;20046;-70
2022/06/06 15:18:40;;;;;;;5.85;1.40;;;;;;;23.09;33.57;99729.81;10491545;28;20252;-71
2022/06/06 15:23:56;;;;;;;3.22;1.35;;;;;;;22.75;33.40;99736.50;10492093;28;20048;-71
2022/06/06 15:29:45;;;;;;;3.42;1.70;;;;;;;22.26;33.51;99731.34;10490981;28;20048;-71
2022/06/06 15:35:14;;;;;;;4.97;1.25;;;;;;;21.97;34.32;99731.03;10490119;28;20040;-71
2022/06/06 15:40:31;;;;;;;1.83;1.15;;;;;;;22.47;34.01;99717.44;10490818;28;20047;-71
2022/06/06 15:45:42;;;;;;;4.10;1.40;;;;;;;23.10;34.45;99707.47;10495594;28;20606;-71
2022/06/06 15:51:06;;;;;;;3.85;1.30;;;;;;;23.54;33.67;99706.81;10493553;28;20173;-71
2022/06/06 15:56:41;;;;;;;1.58;1.10;;;;;;;23.56;33.95;99704.81;10498241;28;20185;-71
2022/06/06 16:01:55;;;;;;;4.43;1.35;;;;;;;23.42;33.55;99701.09;10494713;28;21370;-70
2022/06/06 16:07:09;;;;;;;3.28;1.30;;;;;;;23.14;33.59;99698.13;10510831;28;20048;-71
2022/06/06 16:12:29;;;;;;;2.95;1.20;;;;;;;23.42;33.30;99693.09;10492811;28;20472;-71
2022/06/06 16:17:36;;;;;;;4.88;1.05;;;;;;;23.64;33.14;99686.88;10489667;28;20055;-70
2022/06/06 16:22:44;;;;;;;2.75;1.20;;;;;;;23.65;32.37;99680.56;10490280;28;20048;-70
2022/06/06 16:27:57;;;;;;;2.85;1.10;;;;;;;23.51;31.83;99681.34;10495145;28;20080;-70
2022/06/06 16:32:59;;;;;;;2.10;1.10;;;;;;;23.25;32.70;99680.84;10489402;28;20048;-70
2022/06/06 16:38:08;;;;;;;3.72;1.15;;;;;;;22.73;31.95;99679.84;10493392;28;20696;-70
2022/06/06 16:49:00;;;;;;;2.67;1.10;;;;;;;23.13;31.95;99682.25;10498256;28;20047;-70
2022/06/06 16:54:37;;;;;;;5.05;1.02;;;;;;;23.13;31.83;99683.09;10490460;28;20050;-70
2022/06/06 17:00:04;;;;;;;2.60;1.00;;;;;;;23.07;31.55;99690.97;10492032;28;20075;-70
2022/06/06 17:11:39;;;;;;;3.88;1.20;;;;;;;22.85;32.29;99689.13;10488698;28;20055;-71
2022/06/06 17:16:40;;;;;;;3.40;1.00;;;;;;;22.90;31.76;99695.63;10475603;28;20040;-71
2022/06/06 17:21:59;;;;;;;2.33;1.00;;;;;;;22.68;31.60;99688.34;10481667;28;20535;-71
2022/06/06 17:27:04;;;;;;;3.65;1.10;;;;;;;22.60;31.70;99681.22;10492815;28;20043;-71
2022/06/06 17:32:13;;;;;;;1.55;1.00;;;;;;;22.48;32.00;99685.28;10495759;28;20054;-71
2022/06/06 17:37:36;;;;;;;3.53;1.33;;;;;;;22.43;32.99;99684.97;10490616;28;20044;-71
2022/06/06 17:42:49;;;;;;;8.02;1.20;;;;;;;22.48;32.42;99679.13;10488274;28;20043;-70
2022/06/06 17:48:17;;;;;;;1.10;1.00;;;;;;;22.24;32.70;99696.03;10481831;28;20054;-71
2022/06/06 17:53:53;;;;;;;1.55;0.98;;;;;;;22.06;32.88;99699.94;10481942;28;20048;-70
2022/06/06 17:59:07;;;;;;;2.20;1.13;;;;;;;22.17;33.32;99694.25;10493821;28;20051;-71
2022/06/06 18:04:15;;;;;;;3.28;0.93;;;;;;;22.05;33.20;99707.06;10488073;28;20131;-68
2022/06/06 18:09:48;;;;;;;3.78;1.05;;;;;;;21.70;33.32;99707.47;10499286;28;20070;-70
2022/06/06 18:15:01;;;;;;;5.90;1.63;;;;;;;21.60;33.70;99714.75;10499903;28;20549;-70
2022/06/06 18:20:31;;;;;;;2.67;1.10;;;;;;;21.49;33.71;99709.78;10499927;28;20163;-71
2022/06/06 18:25:37;;;;;;;3.67;1.30;;;;;;;21.43;34.09;99710.44;10503940;28;20375;-69
2022/06/06 18:30:49;;;;;;;3.03;1.88;;;;;;;21.34;34.61;99716.75;10503917;28;20143;-69
2022/06/06 18:35:51;;;;;;;3.30;1.23;;;;;;;21.16;34.42;99716.88;10505520;28;20075;-70
2022/06/06 18:41:02;;;;;;;2.95;1.10;;;;;;;20.97;34.77;99720.66;10505058;28;20092;-70
2022/06/06 18:46:12;;;;;;;1.67;1.10;;;;;;;20.75;34.80;99721.28;10504734;28;20329;-70
2022/06/06 18:51:17;;;;;;;3.83;1.20;;;;;;;20.55;35.16;99725.16;10501569;28;20137;-69
2022/06/06 18:56:29;;;;;;;4.40;1.10;;;;;;;20.29;34.97;99737.66;10502708;28;20593;-71
2022/06/06 19:01:38;;;;;;;1.70;1.02;;;;;;;20.16;35.66;99732.75;10508744;28;20429;-69
2022/06/06 19:07:19;;;;;;;4.23;1.00;;;;;;;19.92;36.15;99732.63;10511719;28;20165;-69
2022/06/06 19:12:31;;;;;;;2.00;1.10;;;;;;;19.91;36.37;99740.75;10511090;28;20170;-70
2022/06/06 19:17:47;;;;;;;3.40;1.15;;;;;;;19.79;36.52;99739.25;10512743;28;20076;-69
2022/06/06 19:23:13;;;;;;;2.88;1.00;;;;;;;19.75;37.01;99740.56;10512370;28;20055;-70
2022/06/06 19:28:23;;;;;;;1.80;1.05;;;;;;;19.67;37.42;99743.16;10510341;28;20127;-71
2022/06/06 19:33:28;;;;;;;4.43;1.30;;;;;;;19.52;38.37;99747.38;10510148;28;20431;-71
2022/06/06 19:38:30;;;;;;;3.40;1.20;;;;;;;19.25;38.72;99749.13;10509903;28;20453;-71
2022/06/06 19:43:55;;;;;;;3.33;1.20;;;;;;;19.05;39.97;99746.75;10509987;28;20428;-69
2022/06/06 19:49:04;;;;;;;1.92;1.13;;;;;;;18.81;40.71;99752.56;10506261;28;20106;-73
2022/06/06 19:54:15;;;;;;;3.03;1.20;;;;;;;18.53;42.17;99754.38;10507391;28;20097;-67
2022/06/06 19:59:27;;;;;;;2.53;1.05;;;;;;;18.38;40.66;99762.97;10500123;28;20051;-67
2022/06/06 20:04:36;;;;;;;2.45;1.25;;;;;;;18.32;40.70;99758.25;10508635;28;20261;-67
2022/06/06 20:09:38;;;;;;;2.78;1.23;;;;;;;18.26;41.23;99769.41;10510282;28;20052;-66
2022/06/06 20:14:41;;;;;;;4.07;1.40;;;;;;;18.15;41.17;99774.84;10508313;28;20052;-67
2022/06/06 20:19:44;;;;;;;2.15;1.20;;;;;;;18.08;42.93;99773.72;10509990;28;20044;-66
2022/06/06 20:25:02;;;;;;;3.78;1.50;;;;;;;17.87;44.57;99768.63;10507967;28;20076;-66
2022/06/06 20:30:10;;;;;;;3.58;1.30;;;;;;;17.64;45.19;99768.09;10508699;28;20079;-67
2022/06/06 20:35:15;;;;;;;3.65;1.40;;;;;;;17.44;45.25;99770.88;10509586;28;20179;-67
2022/06/06 20:40:19;;;;;;;2.20;1.30;;;;;;;17.28;45.54;99771.38;10508777;28;20131;-66
2022/06/06 20:45:30;;;;;;;1.75;1.20;;;;;;;17.10;46.29;99777.50;10508984;28;20504;-67
2022/06/06 20:50:39;;;;;;;3.65;1.30;;;;;;;16.94;46.42;99778.84;10510363;28;20144;-66
2022/06/06 20:55:58;;;;;;;3.35;1.30;;;;;;;16.76;47.27;99784.91;10508036;28;20194;-66
2022/06/06 21:01:00;;;;;;;2.90;1.30;;;;;;;16.72;47.20;99781.72;10509522;28;20100;-66
2022/06/06 21:06:03;;;;;;;1.73;1.30;;;;;;;16.64;47.45;99781.53;10508640;28;20474;-66
2022/06/06 21:11:04;;;;;;;2.72;1.23;;;;;;;16.58;47.74;99791.78;10509992;28;20145;-66
2022/06/06 21:16:09;;;;;;;5.88;1.60;;;;;;;16.47;48.59;99789.25;10508749;28;20130;-66
2022/06/06 21:21:15;;;;;;;2.28;1.42;;;;;;;16.36;48.84;99787.50;10508558;28;20572;-67
2022/06/06 21:26:20;;;;;;;2.95;1.40;;;;;;;16.25;49.21;99790.22;10506186;28;20127;-66
2022/06/06 21:31:22;;;;;;;3.10;1.30;;;;;;;16.13;49.21;99786.84;10506488;28;20051;-67
2022/06/06 21:36:24;;;;;;;1.90;1.20;;;;;;;16.07;49.70;99787.34;10506495;28;20043;-66
2022/06/06 21:41:26;;;;;;;2.72;1.52;;;;;;;16.00;49.30;99793.25;10508500;28;20500;-66
2022/06/06 21:46:28;;;;;;;2.05;1.40;;;;;;;15.90;49.73;99795.00;10506251;28;20147;-66
2022/06/06 21:51:35;;;;;;;5.72;1.40;;;;;;;15.85;50.00;99787.50;10507346;28;20171;-65
2022/06/06 21:56:46;;;;;;;2.10;1.30;;;;;;;15.76;50.41;99785.59;10506831;28;20135;-65
2022/06/06 22:01:48;;;;;;;;;;;;;;;15.40;51.05;99794.72;10506333;28;20487;-65
2022/06/06 22:06:51;;;;;;;2.08;1.20;;;;;;;15.63;50.44;99794.66;10506862;28;20543;-66
2022/06/06 22:11:55;;;;;;;2.72;1.52;;;;;;;15.61;50.69;99793.97;10505890;28;20499;-66
2022/06/06 22:16:58;;;;;;;3.60;1.30;;;;;;;15.56;50.98;99789.06;10506685;28;20298;-65
2022/06/06 22:22:00;;;;;;;2.13;1.20;;;;;;;15.51;51.27;99796.50;10507006;28;20496;-66
2022/06/06 22:27:03;;;;;;;6.38;1.30;;;;;;;15.43;51.54;99794.47;10507175;28;20455;-65
2022/06/06 22:32:05;;;;;;;2.60;1.35;;;;;;;15.39;51.89;99784.28;10510333;28;20063;-66
2022/06/06 22:37:09;;;;;;;3.65;1.30;;;;;;;15.31;51.78;99781.44;10514622;28;20832;-65
2022/06/06 22:42:11;;;;;;;3.75;1.30;;;;;;;15.16;52.35;99782.72;10511552;28;20051;-66
2022/06/06 22:47:13;;;;;;;2.30;1.20;;;;;;;15.02;52.80;99783.00;10511999;28;20158;-65
2022/06/06 22:52:15;;;;;;;2.00;1.25;;;;;;;14.93;53.08;99781.06;10514192;28;20457;-65
2022/06/06 22:57:17;;;;;;;4.32;1.85;;;;;;;14.94;52.98;99780.13;10514413;28;20518;-65
2022/06/06 23:02:18;;;;;;;3.58;1.70;;;;;;;14.91;53.47;99783.00;10513892;28;20539;-65
2022/06/06 23:07:20;;;;;;;6.72;1.30;;;;;;;14.86;53.62;99783.34;10514246;28;20059;-65
2022/06/06 23:12:22;;;;;;;4.15;1.40;;;;;;;14.79;53.67;99782.19;10512653;28;20141;-66
2022/06/06 23:17:24;;;;;;;3.17;1.40;;;;;;;14.65;54.13;99773.69;10512100;28;20054;-67
2022/06/06 23:22:26;;;;;;;2.88;1.40;;;;;;;14.44;54.11;99786.72;10510374;28;20324;-66
2022/06/06 23:27:27;;;;;;;5.65;1.45;;;;;;;14.24;54.77;99788.25;10512010;28;20052;-66
2022/06/06 23:32:29;;;;;;;3.05;1.50;;;;;;;14.00;55.24;99778.78;10509704;28;20142;-66
2022/06/06 23:37:36;;;;;;;2.97;1.45;;;;;;;13.98;55.64;99778.06;10512640;28;20147;-66
2022/06/06 23:42:41;;;;;;;3.08;1.50;;;;;;;13.98;55.74;99776.28;10510709;28;20062;-66
2022/06/06 23:47:50;;;;;;;4.22;1.70;;;;;;;13.92;56.15;99776.75;10511566;28;20056;-66
2022/06/06 23:52:59;;;;;;;2.70;1.30;;;;;;;13.95;56.04;99773.88;10510914;28;20076;-66
2022/06/06 23:58:01;;;;;;;3.28;1.42;;;;;;;13.77;56.00;99775.25;10512000;28;20131;-65
